»·PEaware :: FFT2165 KLAS-KLAX

FFT2165 :: KLAS-KLAX

FLIGHT INFORMATION

Flight Status: Arrived
Operator:
Frontier Airlines
More flights by this operator :: More flights under this callsign
Pilot: Luc P. (3613)
Aircraft: AIRBUS A321
(A321)
More flights by this aircraft type
Origin: KLAS McCarran Intl
United States
Destination: KLAX Los Angeles Intl
United States
More flights between these airports :: More routes between these airports
Route: BOACH8 RIKII SHTNR ANJLL4
File this flight plan on PilotEdge
Remarks:
Altitude:
(Current/Filed)
28,000ft
Speed:
(Current/Filed)
446kts
Departed: 04-Jan-21 07:09 PM
Arrived: 04-Jan-21 07:54 PM
Distance/Time
Traveled:
205nm/0:45
Distance/Time
To Go:
Arrived

Flight Plot

Page will automatically refresh every two minutes.

Flight plan parsing failed; only flown route is shown


Map Options




Map Legend


Flown Route
Filed Route
Departure Airport
Arrival Airport
Navaid (VOR, NDB)
Fix

Horizontal Profiles

Position Reports

Time Latitude Longitude Heading Altitude Ground
Speed
04-Jan-21 18:47 36.082979 -115.134922 254 2068ft 0kts
04-Jan-21 18:48 36.082979 -115.134922 254 2068ft 0kts
04-Jan-21 18:49 36.082979 -115.134922 254 2068ft 0kts
04-Jan-21 18:50 36.082979 -115.134922 254 2068ft 0kts
04-Jan-21 18:51 36.082979 -115.134922 254 2068ft 0kts
04-Jan-21 18:52 36.082979 -115.134922 254 2068ft 0kts
04-Jan-21 18:53 36.082979 -115.134922 254 2068ft 0kts
04-Jan-21 18:54 36.082979 -115.134922 254 2068ft 0kts
04-Jan-21 18:55 36.082979 -115.134922 254 2068ft 0kts
04-Jan-21 18:56 36.082979 -115.134922 254 2068ft 0kts
04-Jan-21 18:57 36.082979 -115.134922 254 2068ft 0kts
04-Jan-21 18:58 36.082979 -115.134922 254 2068ft 0kts
04-Jan-21 18:59 36.083118 -115.134283 261 2067ft 2kts
04-Jan-21 19:00 36.083254 -115.133741 185 2066ft 0kts
04-Jan-21 19:01 36.083323 -115.133745 179 2066ft 0kts
04-Jan-21 19:02 36.083316 -115.133745 178 2066ft 0kts
04-Jan-21 19:03 36.081721 -115.133760 180 2066ft 8kts
04-Jan-21 19:04 36.079408 -115.133758 179 2067ft 7kts
04-Jan-21 19:05 36.078273 -115.131034 90 2060ft 16kts
04-Jan-21 19:06 36.078283 -115.123989 90 2046ft 18kts
04-Jan-21 19:07 36.076732 -115.121251 184 2043ft 10kts
04-Jan-21 19:08 36.076436 -115.148097 269 2228ft 170kts
04-Jan-21 19:09 36.076603 -115.207747 267 4242ft 193kts
04-Jan-21 19:10 36.043707 -115.264682 203 5619ft 262kts
04-Jan-21 19:11 35.974732 -115.298980 196 8679ft 272kts
04-Jan-21 19:12 35.897040 -115.310673 189 10917ft 304kts
04-Jan-21 19:14 35.803238 -115.309233 179 12607ft 355kts
04-Jan-21 19:15 35.704272 -115.297843 180 15261ft 360kts
04-Jan-21 19:16 35.603703 -115.297797 188 17683ft 360kts
04-Jan-21 19:17 35.503664 -115.308359 203 19760ft 358kts
04-Jan-21 19:18 35.416565 -115.366604 214 21583ft 361kts
04-Jan-21 19:19 35.329132 -115.430202 213 23288ft 368kts
04-Jan-21 19:20 35.239793 -115.494928 213 24816ft 376kts
04-Jan-21 19:21 35.150605 -115.559785 216 26664ft 370kts
04-Jan-21 19:22 35.074538 -115.642437 227 28142ft 365kts
04-Jan-21 19:23 35.002357 -115.734866 227 28150ft 376kts
04-Jan-21 19:24 34.930077 -115.827017 227 28152ft 376kts
04-Jan-21 19:25 34.857249 -115.919198 227 28152ft 377kts
04-Jan-21 19:26 34.784241 -116.011541 227 28162ft 377kts
04-Jan-21 19:27 34.711861 -116.103629 227 28185ft 376kts
04-Jan-21 19:28 34.639093 -116.196154 227 28213ft 377kts
04-Jan-21 19:28 34.578519 -116.272988 227 28222ft 377kts
04-Jan-21 19:30 34.493633 -116.380372 227 28221ft 377kts
04-Jan-21 19:31 34.423124 -116.473321 234 27542ft 368kts
04-Jan-21 19:31 34.381591 -116.562946 242 26717ft 363kts
04-Jan-21 19:32 34.336872 -116.671455 242 25693ft 357kts
04-Jan-21 19:33 34.293462 -116.779515 243 24182ft 350kts
04-Jan-21 19:34 34.251436 -116.883717 243 22495ft 339kts
04-Jan-21 19:35 34.211649 -116.985209 248 20823ft 329kts
04-Jan-21 19:36 34.182860 -117.088209 251 19195ft 317kts
04-Jan-21 19:37 34.155634 -117.188223 252 17614ft 308kts
04-Jan-21 19:38 34.128822 -117.285603 253 16058ft 301kts
04-Jan-21 19:39 34.102615 -117.381024 255 14531ft 295kts
04-Jan-21 19:40 34.079053 -117.475703 257 12979ft 293kts
04-Jan-21 19:41 34.049232 -117.565764 251 11707ft 287kts
04-Jan-21 19:42 34.017293 -117.654558 249 10165ft 287kts
04-Jan-21 19:43 34.001126 -117.742957 266 9215ft 266kts
04-Jan-21 19:44 33.992579 -117.831761 265 7844ft 266kts
04-Jan-21 19:45 33.984073 -117.919034 264 6617ft 259kts
04-Jan-21 19:46 33.975575 -118.005139 265 5558ft 249kts
04-Jan-21 19:47 33.968516 -118.083691 264 4935ft 223kts
04-Jan-21 19:48 33.960804 -118.157228 263 3799ft 212kts
04-Jan-21 19:49 33.953786 -118.224015 263 2701ft 188kts
04-Jan-21 19:50 33.947683 -118.282686 263 1753ft 157kts
04-Jan-21 19:51 33.942576 -118.331951 263 974ft 144kts
04-Jan-21 19:52 33.937620 -118.380291 263 192ft 138kts
04-Jan-21 19:53 33.935566 -118.405205 288 128ft 11kts
04-Jan-21 19:54 33.935874 -118.408028 263 130ft 5kts
04-Jan-21 19:55 33.937204 -118.409024 353 131ft 7kts
04-Jan-21 19:56 33.938538 -118.409186 17 130ft 3kts
04-Jan-21 19:57 33.938924 -118.406600 84 130ft 7kts
04-Jan-21 19:58 33.940355 -118.405521 353 129ft 8kts
04-Jan-21 19:59 33.941490 -118.405217 83 128ft 2kts
04-Jan-21 20:00 33.941505 -118.405058 83 128ft 0kts
04-Jan-21 20:01 33.941505 -118.405058 83 128ft 0kts
04-Jan-21 20:02 33.941505 -118.405058 83 128ft 0kts
04-Jan-21 20:03 33.941505 -118.405058 83 128ft 0kts
04-Jan-21 20:04 33.941505 -118.405058 83 128ft 0kts
04-Jan-21 20:05 33.941505 -118.405058 83 128ft 0kts

Navigation Log

Ident Type
Flight plan parsing failed, navigation log unavailable